Narym, Russia
Current Conditions -  °F | °C
As of 8:30 AM on Sunday 21 Dec 2014 (Local Time) from UNTT Reporting Station
Clear Clear  
Wind Chill: -11°   Ceiling: Unl
Heat Index:   Visibility: 6mi
Dew Point:   Wind: 11mph
Humidity: 78%   Direction: 200°SSW
Pressure: 30.12"   Gusts: NA
Location:  58.92°N, 81.58°E
Report Text: UNTT 210130Z 20005MPS CAVOK M15/M18 Q1020 NOSIG RMK QFE75021400055
Loading
Personal Weather Stations






























Interactive Weather Map New forecast layout! Learn more

10-Day Weather Forecast

Advertisements
Track Severe Weather on mobile